createdAt,value
2018-12-09T00:00:34.451Z,987.04
2018-12-09T00:01:34.440Z,986.97
2018-12-09T00:02:34.435Z,986.95
2018-12-09T00:03:34.445Z,986.90
2018-12-09T00:04:34.413Z,986.84
2018-12-09T00:05:34.430Z,986.81
2018-12-09T00:06:34.388Z,986.77
2018-12-09T00:07:34.382Z,986.78
2018-12-09T00:08:34.365Z,986.74
2018-12-09T00:09:34.362Z,986.66
2018-12-09T00:10:34.345Z,986.62
2018-12-09T00:11:34.357Z,986.62
2018-12-09T00:12:34.332Z,986.53
2018-12-09T00:13:34.318Z,986.58
2018-12-09T00:14:34.303Z,986.51
2018-12-09T00:15:34.292Z,986.51
2018-12-09T00:16:34.337Z,986.53
2018-12-09T00:17:34.268Z,986.47
2018-12-09T00:18:34.261Z,986.41
2018-12-09T00:19:34.272Z,986.45
2018-12-09T00:20:34.240Z,986.42
2018-12-09T00:21:34.254Z,986.39
2018-12-09T00:22:34.217Z,986.29
2018-12-09T00:23:34.214Z,986.27
2018-12-09T00:24:34.201Z,986.22
2018-12-09T00:25:34.207Z,986.21
2018-12-09T00:26:34.174Z,986.22
2018-12-09T00:27:34.199Z,986.26
2018-12-09T00:28:34.153Z,986.26
2018-12-09T00:29:34.151Z,986.14
2018-12-09T00:30:34.137Z,986.18
2018-12-09T00:31:34.121Z,986.10
2018-12-09T00:32:34.111Z,986.06
2018-12-09T00:33:34.120Z,986.05
2018-12-09T00:34:34.090Z,986.00
2018-12-09T00:35:34.078Z,985.91
2018-12-09T00:36:34.105Z,985.89
2018-12-09T00:37:34.072Z,985.88
2018-12-09T00:38:34.057Z,985.87
2018-12-09T00:39:34.036Z,985.83
2018-12-09T00:40:34.031Z,985.83
2018-12-09T00:41:34.026Z,985.77
2018-12-09T00:42:34.031Z,985.76
2018-12-09T00:43:33.999Z,985.72
2018-12-09T00:44:33.983Z,985.73
2018-12-09T00:45:33.973Z,985.72
2018-12-09T00:46:33.962Z,985.72
2018-12-09T00:47:33.973Z,985.70
2018-12-09T00:48:33.948Z,985.67
2018-12-09T00:49:33.964Z,985.60
2018-12-09T00:50:33.921Z,985.63
2018-12-09T00:51:33.915Z,985.63
2018-12-09T00:52:33.907Z,985.60
2018-12-09T00:53:33.889Z,985.58
2018-12-09T00:54:33.880Z,985.54
2018-12-09T00:55:33.901Z,985.54
2018-12-09T00:56:33.909Z,985.43
2018-12-09T00:57:33.852Z,985.42
2018-12-09T00:58:33.837Z,985.47
2018-12-09T00:59:33.830Z,985.49
2018-12-09T01:00:33.814Z,985.28
2018-12-09T01:01:33.840Z,985.35
2018-12-09T01:02:33.808Z,985.33
2018-12-09T01:03:33.789Z,985.28
2018-12-09T01:04:33.800Z,985.23
2018-12-09T01:05:33.802Z,985.24
2018-12-09T01:06:33.757Z,985.16
2018-12-09T01:07:33.742Z,985.12
2018-12-09T01:08:33.730Z,985.22
2018-12-09T01:09:33.719Z,985.21
2018-12-09T01:10:33.713Z,985.13
2018-12-09T01:11:33.719Z,985.17
2018-12-09T01:12:33.693Z,985.13
2018-12-09T01:13:33.679Z,985.08
2018-12-09T01:14:33.678Z,985.08
2018-12-09T01:15:33.669Z,984.91
2018-12-09T01:16:33.676Z,984.90
2018-12-09T01:17:33.641Z,984.83
2018-12-09T01:18:33.630Z,984.76
2018-12-09T01:19:33.621Z,984.73
2018-12-09T01:20:33.636Z,984.67
2018-12-09T01:21:33.601Z,984.63
2018-12-09T01:22:33.591Z,984.69
2018-12-09T01:23:33.578Z,984.62
2018-12-09T01:24:33.589Z,984.58
2018-12-09T01:25:33.551Z,984.46
2018-12-09T01:26:33.561Z,984.43
2018-12-09T01:27:33.536Z,984.42
2018-12-09T01:28:33.521Z,984.42
2018-12-09T01:29:33.571Z,984.43
2018-12-09T01:30:33.500Z,984.40
2018-12-09T01:31:33.492Z,984.40
2018-12-09T01:32:33.497Z,984.39
2018-12-09T01:33:33.471Z,984.39
2018-12-09T01:34:33.455Z,984.28
2018-12-09T01:35:33.451Z,984.26
2018-12-09T01:36:33.439Z,984.18
2018-12-09T01:37:33.449Z,984.20
2018-12-09T01:38:33.426Z,984.17
2018-12-09T01:39:33.404Z,984.19
2018-12-09T01:40:33.400Z,984.26
2018-12-09T01:41:33.388Z,984.21
2018-12-09T01:42:33.396Z,984.17
2018-12-09T01:43:33.364Z,984.20
2018-12-09T01:44:33.371Z,984.20
2018-12-09T01:45:33.343Z,984.07
2018-12-09T01:46:33.331Z,984.00
2018-12-09T01:47:33.322Z,983.90
2018-12-09T01:48:33.328Z,983.93
2018-12-09T01:49:33.301Z,983.93
2018-12-09T01:50:33.290Z,983.87
2018-12-09T01:51:33.279Z,983.86
2018-12-09T01:52:33.283Z,983.85
2018-12-09T01:53:33.259Z,983.80
2018-12-09T01:54:33.244Z,983.82
2018-12-09T01:55:33.235Z,983.85
2018-12-09T01:56:33.243Z,983.84
2018-12-09T01:57:33.212Z,983.80
2018-12-09T01:58:33.203Z,983.80
2018-12-09T01:59:33.188Z,983.81
2018-12-09T02:00:33.179Z,983.74
2018-12-09T02:01:33.207Z,983.75
2018-12-09T02:02:33.166Z,983.72
2018-12-09T02:03:33.151Z,983.69
2018-12-09T02:04:33.140Z,983.64
2018-12-09T02:05:33.131Z,983.66
2018-12-09T02:06:33.118Z,983.67
2018-12-09T02:07:33.124Z,983.60
2018-12-09T02:08:33.091Z,983.58
2018-12-09T02:09:33.081Z,983.52
2018-12-09T02:10:33.099Z,983.49
2018-12-09T02:11:33.062Z,983.46
2018-12-09T02:12:33.069Z,983.46
2018-12-09T02:13:33.059Z,983.55
2018-12-09T02:14:33.036Z,983.51
2018-12-09T02:15:33.017Z,983.42
2018-12-09T02:16:33.005Z,983.39
2018-12-09T02:17:33.002Z,983.36
2018-12-09T02:18:33.009Z,983.38
2018-12-09T02:19:32.979Z,983.31
2018-12-09T02:20:32.966Z,983.28
2018-12-09T02:21:32.961Z,983.34
2018-12-09T02:22:32.967Z,983.31
2018-12-09T02:23:32.957Z,983.31
2018-12-09T02:24:32.928Z,983.29
2018-12-09T02:25:32.939Z,983.29
2018-12-09T02:26:32.906Z,983.24
2018-12-09T02:27:32.939Z,983.24
2018-12-09T02:28:32.876Z,983.23
2018-12-09T02:29:32.890Z,983.15
2018-12-09T02:30:32.860Z,983.17
2018-12-09T02:31:32.852Z,983.12
2018-12-09T02:32:32.843Z,983.14
2018-12-09T02:33:32.906Z,983.16
2018-12-09T02:34:32.876Z,983.12
2018-12-09T02:35:32.804Z,983.05
2018-12-09T02:36:32.792Z,983.07
2018-12-09T02:37:32.780Z,982.99
2018-12-09T02:38:32.770Z,982.99
2018-12-09T02:39:32.764Z,982.95
2018-12-09T02:40:32.769Z,982.97
2018-12-09T02:41:32.762Z,982.90
2018-12-09T02:42:32.727Z,982.81
2018-12-09T02:43:32.720Z,982.88
2018-12-09T02:44:32.732Z,982.79
2018-12-09T02:45:32.703Z,982.89
2018-12-09T02:46:32.688Z,982.85
2018-12-09T02:47:32.677Z,982.80
2018-12-09T02:48:32.667Z,982.74
2018-12-09T02:49:32.676Z,982.75
2018-12-09T02:50:32.647Z,982.74
2018-12-09T02:51:32.656Z,982.77
2018-12-09T02:52:32.625Z,982.75
2018-12-09T02:53:32.613Z,982.71
2018-12-09T02:54:32.606Z,982.64
2018-12-09T02:55:32.594Z,982.61
2018-12-09T02:56:32.580Z,982.62
2018-12-09T02:57:32.586Z,982.62
2018-12-09T02:58:32.563Z,982.56
2018-12-09T02:59:32.552Z,982.55
2018-12-09T03:00:32.534Z,982.52
2018-12-09T03:01:32.527Z,982.52
2018-12-09T03:02:32.531Z,982.50
2018-12-09T03:03:32.508Z,982.44
2018-12-09T03:04:32.492Z,982.48
2018-12-09T03:05:32.503Z,982.42
2018-12-09T03:06:32.472Z,982.40
2018-12-09T03:07:32.480Z,982.48
2018-12-09T03:08:32.459Z,982.43
2018-12-09T03:09:32.441Z,982.47
2018-12-09T03:10:32.448Z,982.44
2018-12-09T03:11:32.417Z,982.42
2018-12-09T03:12:32.409Z,982.41
2018-12-09T03:13:32.405Z,982.42
2018-12-09T03:14:32.383Z,982.43
2018-12-09T03:15:32.377Z,982.38
2018-12-09T03:16:32.387Z,982.36
2018-12-09T03:17:32.355Z,982.35
2018-12-09T03:18:32.339Z,982.35
2018-12-09T03:19:32.361Z,982.36
2018-12-09T03:20:32.323Z,982.37
2018-12-09T03:21:32.308Z,982.41
2018-12-09T03:22:32.302Z,982.37
2018-12-09T03:23:32.292Z,982.28
2018-12-09T03:24:32.309Z,982.32
2018-12-09T03:25:32.270Z,982.24
2018-12-09T03:26:32.261Z,982.24
2018-12-09T03:27:32.243Z,982.26
2018-12-09T03:28:32.232Z,982.28
2018-12-09T03:29:32.223Z,982.22
2018-12-09T03:30:32.251Z,982.24
2018-12-09T03:31:32.201Z,982.21
2018-12-09T03:32:32.195Z,982.24
2018-12-09T03:33:34.448Z,982.25
2018-12-09T03:34:32.173Z,982.22
2018-12-09T03:35:32.159Z,982.14
2018-12-09T03:36:32.168Z,982.16
2018-12-09T03:37:32.138Z,982.18
2018-12-09T03:38:32.130Z,982.14
2018-12-09T03:39:32.119Z,982.10
2018-12-09T03:40:32.103Z,982.10
2018-12-09T03:41:32.115Z,982.04
2018-12-09T03:42:32.086Z,982.08
2018-12-09T03:43:32.075Z,982.06
2018-12-09T03:44:32.064Z,982.09
2018-12-09T03:45:32.078Z,982.12
2018-12-09T03:46:32.088Z,982.05
2018-12-09T03:47:32.030Z,982.04
2018-12-09T03:48:32.027Z,982.06
2018-12-09T03:49:32.014Z,982.08
2018-12-09T03:50:32.002Z,982.05
2018-12-09T03:51:31.991Z,982.10
2018-12-09T03:52:32.009Z,982.01
2018-12-09T03:53:31.965Z,982.05
2018-12-09T03:54:31.956Z,982.01
2018-12-09T03:55:31.948Z,982.09
2018-12-09T03:56:31.939Z,982.05
2018-12-09T03:57:31.928Z,982.05
2018-12-09T03:58:31.936Z,982.00
2018-12-09T03:59:31.903Z,981.99
2018-12-09T04:00:31.889Z,981.99
2018-12-09T04:01:31.881Z,981.99
2018-12-09T04:02:31.889Z,981.91
2018-12-09T04:03:31.861Z,981.91
2018-12-09T04:04:31.851Z,981.98
2018-12-09T04:05:31.836Z,982.00
2018-12-09T04:06:31.834Z,981.93
2018-12-09T04:07:31.850Z,981.93
2018-12-09T04:08:31.809Z,981.92
2018-12-09T04:09:31.812Z,981.93
2018-12-09T04:10:31.782Z,981.95
2018-12-09T04:11:31.776Z,981.97
2018-12-09T04:12:31.767Z,981.90
2018-12-09T04:13:31.791Z,981.94
2018-12-09T04:14:31.749Z,981.87
2018-12-09T04:15:31.735Z,981.87
2018-12-09T04:16:31.824Z,981.90
2018-12-09T04:17:31.711Z,981.84
2018-12-09T04:18:31.697Z,981.87
2018-12-09T04:19:31.724Z,981.89
2018-12-09T04:20:31.682Z,981.89
2018-12-09T04:21:31.663Z,981.91
2018-12-09T04:22:31.658Z,981.87
2018-12-09T04:23:34.858Z,981.89
2018-12-09T04:24:31.633Z,981.86
2018-12-09T04:25:31.647Z,981.86
2018-12-09T04:26:31.643Z,981.80
2018-12-09T04:27:31.607Z,981.82
2018-12-09T04:28:31.589Z,981.81
2018-12-09T04:29:31.584Z,981.79
2018-12-09T04:30:39.489Z,981.80
2018-12-09T04:31:38.920Z,981.82
2018-12-09T04:32:39.557Z,981.92
2018-12-09T04:33:39.090Z,981.82
2018-12-09T04:34:39.124Z,981.83
2018-12-09T04:35:38.589Z,981.88
2018-12-09T04:36:38.573Z,981.84
2018-12-09T04:37:38.582Z,981.86
2018-12-09T04:38:39.263Z,981.83
2018-12-09T04:39:39.302Z,981.83
2018-12-09T04:40:39.337Z,981.82
2018-12-09T04:41:39.373Z,981.85
2018-12-09T04:42:39.410Z,981.89
2018-12-09T04:43:38.495Z,981.78
2018-12-09T04:44:31.423Z,981.88
2018-12-09T04:45:38.977Z,981.86
2018-12-09T04:46:39.034Z,981.94
2018-12-09T04:47:38.462Z,981.86
2018-12-09T04:48:31.387Z,981.92
2018-12-09T04:49:31.372Z,981.86
2018-12-09T04:50:31.357Z,981.89
2018-12-09T04:51:31.349Z,981.88
2018-12-09T04:52:31.337Z,981.93
2018-12-09T04:53:31.362Z,981.94
2018-12-09T04:54:31.315Z,981.83
2018-12-09T04:55:31.308Z,981.85
2018-12-09T04:56:31.303Z,981.88
2018-12-09T04:57:31.289Z,981.85
2018-12-09T04:58:31.275Z,981.87
2018-12-09T04:59:31.286Z,981.87
2018-12-09T05:00:31.259Z,981.89
2018-12-09T05:01:31.238Z,981.90
2018-12-09T05:02:31.241Z,981.91
2018-12-09T05:03:31.217Z,981.87
2018-12-09T05:04:31.232Z,981.89
2018-12-09T05:05:31.195Z,981.96
2018-12-09T05:06:31.190Z,981.92
2018-12-09T05:07:31.176Z,981.94
2018-12-09T05:08:31.211Z,981.97
2018-12-09T05:09:31.158Z,981.94
2018-12-09T05:10:31.143Z,981.93
2018-12-09T05:11:31.136Z,982.01
2018-12-09T05:12:31.127Z,982.01
2018-12-09T05:13:31.111Z,981.99
2018-12-09T05:14:31.122Z,982.00
2018-12-09T05:15:31.107Z,981.97
2018-12-09T05:16:31.189Z,982.00
2018-12-09T05:17:31.073Z,982.05
2018-12-09T05:18:31.058Z,982.00
2018-12-09T05:19:31.047Z,982.06
2018-12-09T05:20:31.072Z,982.05
2018-12-09T05:21:31.032Z,982.06
2018-12-09T05:22:31.019Z,982.04
2018-12-09T05:23:31.009Z,982.11
2018-12-09T05:24:30.993Z,982.08
2018-12-09T05:25:30.984Z,982.16
2018-12-09T05:26:30.999Z,982.22
2018-12-09T05:27:30.967Z,982.16
2018-12-09T05:28:30.955Z,982.19
2018-12-09T05:29:30.945Z,982.19
2018-12-09T05:30:30.935Z,982.21
2018-12-09T05:31:30.938Z,982.19
2018-12-09T05:32:30.934Z,982.20
2018-12-09T05:33:30.902Z,982.18
2018-12-09T05:34:30.891Z,982.21
2018-12-09T05:35:30.881Z,982.18
2018-12-09T05:36:30.891Z,982.21
2018-12-09T05:37:30.865Z,982.19
2018-12-09T05:38:30.844Z,982.32
2018-12-09T05:39:30.838Z,982.23
2018-12-09T05:40:30.822Z,982.29
2018-12-09T05:41:30.853Z,982.25
2018-12-09T05:42:30.812Z,982.25
2018-12-09T05:43:30.793Z,982.29
2018-12-09T05:44:30.788Z,982.28
2018-12-09T05:45:30.776Z,982.33
2018-12-09T05:46:30.758Z,982.28
2018-12-09T05:47:30.776Z,982.34
2018-12-09T05:48:30.738Z,982.33
2018-12-09T05:49:30.731Z,982.33
2018-12-09T05:50:30.717Z,982.27
2018-12-09T05:51:30.706Z,982.32
2018-12-09T05:52:30.700Z,982.36
2018-12-09T05:53:30.710Z,982.29
2018-12-09T05:54:30.679Z,982.33
2018-12-09T05:55:30.671Z,982.26
2018-12-09T05:56:30.653Z,982.35
2018-12-09T05:57:30.663Z,982.37
2018-12-09T05:58:30.631Z,982.34
2018-12-09T05:59:30.648Z,982.34
2018-12-09T06:00:30.616Z,982.36
2018-12-09T06:01:30.607Z,982.27
2018-12-09T06:02:30.589Z,982.33
2018-12-09T06:03:30.602Z,982.42
2018-12-09T06:04:30.586Z,982.36
2018-12-09T06:05:30.556Z,982.34
2018-12-09T06:06:30.549Z,982.38
2018-12-09T06:07:30.544Z,982.32
2018-12-09T06:08:30.564Z,982.36
2018-12-09T06:09:30.518Z,982.40
2018-12-09T06:10:30.504Z,982.36
2018-12-09T06:11:30.494Z,982.30
2018-12-09T06:12:30.484Z,982.39
2018-12-09T06:13:30.473Z,982.35
2018-12-09T06:14:30.487Z,982.37
2018-12-09T06:15:30.472Z,982.37
2018-12-09T06:16:30.445Z,982.39
2018-12-09T06:17:30.434Z,982.29
2018-12-09T06:18:30.431Z,982.42
2018-12-09T06:19:30.417Z,982.34
2018-12-09T06:20:30.423Z,982.50
2018-12-09T06:21:30.392Z,982.43
2018-12-09T06:22:30.381Z,982.48
2018-12-09T06:23:30.366Z,982.43
2018-12-09T06:24:30.357Z,982.51
2018-12-09T06:25:30.387Z,982.56
2018-12-09T06:26:30.331Z,982.55
2018-12-09T06:27:30.323Z,982.63
2018-12-09T06:28:30.312Z,982.57
2018-12-09T06:29:30.301Z,982.64
2018-12-09T06:30:30.299Z,982.57
2018-12-09T06:31:30.302Z,982.65
2018-12-09T06:32:30.274Z,982.69
2018-12-09T06:33:30.264Z,982.69
2018-12-09T06:34:30.254Z,982.72
2018-12-09T06:35:30.246Z,982.69
2018-12-09T06:36:30.258Z,982.66
2018-12-09T06:37:30.215Z,982.68
2018-12-09T06:38:30.211Z,982.66
2018-12-09T06:39:30.217Z,982.69
2018-12-09T06:40:30.190Z,982.80
2018-12-09T06:41:30.178Z,982.71
2018-12-09T06:42:30.191Z,982.82
2018-12-09T06:43:30.156Z,982.80
2018-12-09T06:44:30.147Z,982.80
2018-12-09T06:45:30.131Z,982.83
2018-12-09T06:46:30.129Z,982.82
2018-12-09T06:47:30.132Z,982.85
2018-12-09T06:48:30.101Z,982.74
2018-12-09T06:49:30.093Z,982.85
2018-12-09T06:50:30.087Z,982.90
2018-12-09T06:51:30.068Z,982.87
2018-12-09T06:52:30.094Z,982.77
2018-12-09T06:53:30.168Z,982.87
2018-12-09T06:54:30.035Z,982.87
2018-12-09T06:55:30.030Z,982.89
2018-12-09T06:56:30.023Z,982.74
2018-12-09T06:57:30.024Z,982.97
2018-12-09T06:58:30.018Z,982.95
2018-12-09T06:59:30.001Z,983.09
2018-12-09T07:00:29.976Z,982.91
2018-12-09T07:01:30.825Z,983.00
2018-12-09T07:02:29.956Z,983.11
2018-12-09T07:03:29.952Z,983.11
2018-12-09T07:04:29.960Z,983.13
2018-12-09T07:05:29.944Z,983.07
2018-12-09T07:06:29.908Z,983.15
2018-12-09T07:07:29.907Z,983.22
2018-12-09T07:08:29.893Z,983.21
2018-12-09T07:09:29.904Z,983.14
2018-12-09T07:10:29.868Z,983.24
2018-12-09T07:11:29.861Z,983.36
2018-12-09T07:12:29.853Z,983.33
2018-12-09T07:13:29.837Z,983.35
2018-12-09T07:14:29.866Z,983.38
2018-12-09T07:15:29.818Z,983.35
2018-12-09T07:16:29.804Z,983.47
2018-12-09T07:17:29.792Z,983.44
2018-12-09T07:18:29.784Z,983.49
2018-12-09T07:19:29.777Z,983.43
2018-12-09T07:20:29.786Z,983.54
2018-12-09T07:21:29.748Z,983.47
2018-12-09T07:22:29.744Z,983.54
2018-12-09T07:23:29.737Z,983.57
2018-12-09T07:24:29.719Z,983.58
2018-12-09T07:25:29.738Z,983.67
2018-12-09T07:26:29.698Z,983.67
2018-12-09T07:27:29.690Z,983.72
2018-12-09T07:28:29.680Z,983.69
2018-12-09T07:29:29.670Z,983.70
2018-12-09T07:30:29.669Z,983.75
2018-12-09T07:31:29.682Z,983.79
2018-12-09T07:32:29.639Z,983.86
2018-12-09T07:33:29.621Z,983.87
2018-12-09T07:34:29.611Z,983.84
2018-12-09T07:35:29.605Z,983.89
2018-12-09T07:36:29.596Z,983.97
2018-12-09T07:37:29.607Z,983.90
2018-12-09T07:38:29.575Z,984.01
2018-12-09T07:39:29.564Z,983.98
2018-12-09T07:40:29.551Z,984.03
2018-12-09T07:41:29.535Z,984.09
2018-12-09T07:42:29.531Z,984.07
2018-12-09T07:43:29.530Z,984.05
2018-12-09T07:44:29.510Z,984.11
2018-12-09T07:45:29.493Z,984.14
2018-12-09T07:46:29.484Z,984.08
2018-12-09T07:47:29.477Z,984.13
2018-12-09T07:48:29.488Z,984.17
2018-12-09T07:49:29.458Z,984.19
2018-12-09T07:50:29.445Z,984.15
2018-12-09T07:51:29.430Z,984.18
2018-12-09T07:52:29.424Z,984.19
2018-12-09T07:53:29.454Z,984.19
2018-12-09T07:54:29.400Z,984.25
2018-12-09T07:55:29.388Z,984.28
2018-12-09T07:56:29.382Z,984.27
2018-12-09T07:57:29.373Z,984.28
2018-12-09T07:58:29.360Z,984.32
2018-12-09T07:59:29.361Z,984.30
2018-12-09T08:00:29.333Z,984.34
2018-12-09T08:01:29.323Z,984.32
2018-12-09T08:02:29.314Z,984.34
2018-12-09T08:03:29.321Z,984.32
2018-12-09T08:04:29.298Z,984.38
2018-12-09T08:05:29.308Z,984.38
2018-12-09T08:06:29.272Z,984.38
2018-12-09T08:07:29.259Z,984.39
2018-12-09T08:08:29.276Z,984.39
2018-12-09T08:09:29.275Z,984.38
2018-12-09T08:10:29.233Z,984.42
2018-12-09T08:11:29.223Z,984.41
2018-12-09T08:12:29.207Z,984.42
2018-12-09T08:13:29.196Z,984.43
2018-12-09T08:14:29.196Z,984.48
2018-12-09T08:15:29.193Z,984.48
2018-12-09T08:16:29.212Z,984.50
2018-12-09T08:17:29.153Z,984.55
2018-12-09T08:18:29.157Z,984.58
2018-12-09T08:19:29.156Z,984.57
2018-12-09T08:20:29.129Z,984.61
2018-12-09T08:21:29.116Z,984.62
2018-12-09T08:22:29.129Z,984.67
2018-12-09T08:23:29.094Z,984.65
2018-12-09T08:24:29.087Z,984.68
2018-12-09T08:25:29.078Z,984.62
2018-12-09T08:26:29.063Z,984.68
2018-12-09T08:27:29.096Z,984.71
2018-12-09T08:28:29.035Z,984.74
2018-12-09T08:29:29.028Z,984.76
2018-12-09T08:30:29.026Z,984.76
2018-12-09T08:31:29.003Z,984.80
2018-12-09T08:32:28.998Z,984.85
2018-12-09T08:33:29.016Z,984.80
2018-12-09T08:34:28.977Z,984.82
2018-12-09T08:35:28.966Z,984.84
2018-12-09T08:36:28.957Z,984.87
2018-12-09T08:37:28.939Z,984.89
2018-12-09T08:38:28.930Z,984.92
2018-12-09T08:39:28.941Z,985.05
2018-12-09T08:40:28.909Z,985.07
2018-12-09T08:41:28.898Z,984.91
2018-12-09T08:42:28.919Z,984.96
2018-12-09T08:43:28.875Z,984.88
2018-12-09T08:44:28.866Z,984.91
2018-12-09T08:45:28.879Z,985.00
2018-12-09T08:46:28.881Z,985.03
2018-12-09T08:47:29.831Z,985.07
2018-12-09T08:48:28.864Z,985.10
2018-12-09T08:49:28.812Z,985.13
2018-12-09T08:50:28.802Z,985.13
2018-12-09T08:51:28.805Z,985.11
2018-12-09T08:52:28.789Z,985.14
2018-12-09T08:53:28.783Z,985.23
2018-12-09T08:54:28.791Z,985.24
2018-12-09T08:55:28.761Z,985.27
2018-12-09T08:56:28.743Z,985.28
2018-12-09T08:57:28.732Z,985.29
2018-12-09T08:58:28.723Z,985.33
2018-12-09T08:59:28.742Z,985.33
2018-12-09T09:00:28.717Z,985.34
2018-12-09T09:01:28.684Z,985.41
2018-12-09T09:02:28.728Z,985.36
2018-12-09T09:03:28.663Z,985.34
2018-12-09T09:04:28.665Z,985.40
2018-12-09T09:05:28.642Z,985.44
2018-12-09T09:06:28.637Z,985.44
2018-12-09T09:07:28.626Z,985.46
2018-12-09T09:08:28.626Z,985.47
2018-12-09T09:09:28.664Z,985.46
2018-12-09T09:10:28.634Z,985.48
2018-12-09T09:11:28.583Z,985.52
2018-12-09T09:12:28.567Z,985.56
2018-12-09T09:13:28.558Z,985.57
2018-12-09T09:14:28.546Z,985.56
2018-12-09T09:15:28.543Z,985.59
2018-12-09T09:16:28.553Z,985.61
2018-12-09T09:17:28.520Z,985.63
2018-12-09T09:18:28.514Z,985.68
2018-12-09T09:19:28.499Z,985.62
2018-12-09T09:20:28.496Z,985.66
2018-12-09T09:21:28.516Z,985.66
2018-12-09T09:22:28.469Z,985.68
2018-12-09T09:23:28.456Z,985.73
2018-12-09T09:24:28.444Z,985.71
2018-12-09T09:25:28.434Z,985.66
2018-12-09T09:26:28.654Z,985.67
2018-12-09T09:27:28.457Z,985.70
2018-12-09T09:28:28.397Z,985.77
2018-12-09T09:29:28.386Z,985.76
2018-12-09T09:30:28.615Z,985.84
2018-12-09T09:31:28.393Z,985.80
2018-12-09T09:32:28.376Z,985.79
2018-12-09T09:33:28.349Z,985.83
2018-12-09T09:34:28.349Z,985.81
2018-12-09T09:35:28.332Z,985.78
2018-12-09T09:36:28.314Z,985.84
2018-12-09T09:37:28.320Z,985.83
2018-12-09T09:38:28.331Z,985.89
2018-12-09T09:39:28.432Z,985.86
2018-12-09T09:40:28.277Z,985.90
2018-12-09T09:41:28.268Z,985.89
2018-12-09T09:42:28.252Z,985.93
2018-12-09T09:43:28.242Z,985.96
2018-12-09T09:44:28.248Z,985.92
2018-12-09T09:45:28.218Z,985.94
2018-12-09T09:46:28.214Z,985.94
2018-12-09T09:47:28.194Z,985.97
2018-12-09T09:48:28.351Z,986.00
2018-12-09T09:49:28.439Z,985.96
2018-12-09T09:50:28.173Z,985.96
2018-12-09T09:51:28.160Z,986.04
2018-12-09T09:52:28.141Z,986.04
2018-12-09T09:53:28.136Z,985.99
2018-12-09T09:54:28.140Z,986.04
2018-12-09T09:55:28.115Z,986.09
2018-12-09T09:56:28.099Z,986.09
2018-12-09T09:57:28.089Z,986.10
2018-12-09T09:58:28.107Z,986.15
2018-12-09T09:59:28.072Z,986.12
2018-12-09T10:00:28.056Z,986.12
2018-12-09T10:01:28.077Z,986.02
2018-12-09T10:02:28.039Z,986.05
2018-12-09T10:03:28.025Z,986.11
2018-12-09T10:04:28.020Z,986.14
2018-12-09T10:05:28.002Z,986.11
2018-12-09T10:06:27.998Z,986.18
2018-12-09T10:07:27.999Z,986.16
2018-12-09T10:08:27.982Z,986.09
2018-12-09T10:09:27.961Z,986.14
2018-12-09T10:10:27.967Z,986.07
2018-12-09T10:11:27.944Z,986.14
2018-12-09T10:12:29.148Z,986.10
2018-12-09T10:13:27.950Z,986.16
2018-12-09T10:14:27.907Z,986.14
2018-12-09T10:15:27.898Z,986.18
2018-12-09T10:16:27.885Z,986.16
2018-12-09T10:17:27.876Z,986.19
2018-12-09T10:18:28.633Z,986.16
2018-12-09T10:19:27.883Z,986.12
2018-12-09T10:20:27.850Z,986.13
2018-12-09T10:21:27.841Z,986.22
2018-12-09T10:22:27.827Z,986.21
2018-12-09T10:23:29.611Z,986.21
2018-12-09T10:24:27.807Z,986.24
2018-12-09T10:25:27.812Z,986.19
2018-12-09T10:26:27.785Z,986.22
2018-12-09T10:27:27.784Z,986.24
2018-12-09T10:28:27.762Z,986.23
2018-12-09T10:29:27.757Z,986.24
2018-12-09T10:30:27.773Z,986.24
2018-12-09T10:31:27.734Z,986.24
2018-12-09T10:32:27.730Z,986.27
2018-12-09T10:33:27.738Z,986.21
2018-12-09T10:34:27.700Z,986.21
2018-12-09T10:35:27.689Z,986.23
2018-12-09T10:36:27.687Z,986.20
2018-12-09T10:37:27.670Z,986.17
2018-12-09T10:38:27.655Z,986.18
2018-12-09T10:39:27.658Z,986.22
2018-12-09T10:40:28.103Z,986.15
2018-12-09T10:41:27.801Z,986.28
2018-12-09T10:42:27.620Z,986.22
2018-12-09T10:43:27.602Z,986.22
2018-12-09T10:44:27.594Z,986.22
2018-12-09T10:45:28.239Z,986.28
2018-12-09T10:46:27.589Z,986.25
2018-12-09T10:47:27.557Z,986.29
2018-12-09T10:48:28.526Z,986.27
2018-12-09T10:49:27.540Z,986.27
2018-12-09T10:50:27.523Z,986.31
2018-12-09T10:51:27.529Z,986.31
2018-12-09T10:52:27.501Z,986.27
2018-12-09T10:53:27.519Z,986.29
2018-12-09T10:54:27.487Z,986.28
2018-12-09T10:55:27.471Z,986.32
2018-12-09T10:56:27.477Z,986.30
2018-12-09T10:57:27.475Z,986.27
2018-12-09T10:58:27.444Z,986.27
2018-12-09T10:59:27.425Z,986.31
2018-12-09T11:00:27.426Z,986.31
2018-12-09T11:01:27.406Z,986.32
2018-12-09T11:02:27.411Z,986.26
2018-12-09T11:03:27.392Z,986.27
2018-12-09T11:04:27.373Z,986.29
2018-12-09T11:05:27.364Z,986.37
2018-12-09T11:06:27.351Z,986.31
2018-12-09T11:07:27.389Z,986.34
2018-12-09T11:08:27.341Z,986.34
2018-12-09T11:09:27.325Z,986.32
2018-12-09T11:10:27.312Z,986.32
2018-12-09T11:11:27.300Z,986.40
2018-12-09T11:12:27.293Z,986.37
2018-12-09T11:13:27.296Z,986.38
2018-12-09T11:14:27.295Z,986.41
2018-12-09T11:15:27.262Z,986.40
2018-12-09T11:16:27.254Z,986.40
2018-12-09T11:17:27.321Z,986.43
2018-12-09T11:18:27.230Z,986.42
2018-12-09T11:19:27.237Z,986.41
2018-12-09T11:20:27.206Z,986.47
2018-12-09T11:21:30.809Z,986.44
2018-12-09T11:22:27.199Z,986.45
2018-12-09T11:23:27.242Z,986.44
2018-12-09T11:24:27.180Z,986.43
2018-12-09T11:25:27.167Z,986.48
2018-12-09T11:26:27.146Z,986.48
2018-12-09T11:27:27.134Z,986.50
2018-12-09T11:28:27.120Z,986.54
2018-12-09T11:29:27.112Z,986.52
2018-12-09T11:30:27.175Z,986.50
2018-12-09T11:31:27.086Z,986.52
2018-12-09T11:32:27.082Z,986.44
2018-12-09T11:33:27.072Z,986.46
2018-12-09T11:34:27.056Z,986.44
2018-12-09T11:35:27.066Z,986.45
2018-12-09T11:36:27.037Z,986.51
2018-12-09T11:37:27.023Z,986.48
2018-12-09T11:38:27.022Z,986.51
2018-12-09T11:39:27.005Z,986.48
2018-12-09T11:40:27.036Z,986.42
2018-12-09T11:41:26.979Z,986.49
2018-12-09T11:42:26.974Z,986.48
2018-12-09T11:43:27.072Z,986.49
2018-12-09T11:44:26.952Z,986.48
2018-12-09T11:45:26.941Z,986.54
2018-12-09T11:46:26.941Z,986.44
2018-12-09T11:47:26.940Z,986.47
2018-12-09T11:48:26.904Z,986.43
2018-12-09T11:49:26.903Z,986.41
2018-12-09T11:50:26.889Z,986.45
2018-12-09T11:51:26.878Z,986.38
2018-12-09T11:52:26.869Z,986.43
2018-12-09T11:53:26.874Z,986.41
2018-12-09T11:54:26.840Z,986.44
2018-12-09T11:55:26.838Z,986.47
2018-12-09T11:56:26.820Z,986.47
2018-12-09T11:57:26.831Z,986.48
2018-12-09T11:58:26.808Z,986.51
2018-12-09T11:59:26.791Z,986.49
2018-12-09T12:00:26.777Z,986.51
2018-12-09T12:01:26.772Z,986.49
2018-12-09T12:02:26.772Z,986.44
2018-12-09T12:03:26.765Z,986.52
2018-12-09T12:04:26.775Z,986.53
2018-12-09T12:05:26.722Z,986.56
2018-12-09T12:06:26.744Z,986.55
2018-12-09T12:07:26.705Z,986.57
2018-12-09T12:08:26.693Z,986.62
2018-12-09T12:09:26.716Z,986.58
2018-12-09T12:10:26.678Z,986.54
2018-12-09T12:11:26.659Z,986.58
2018-12-09T12:12:26.649Z,986.58
2018-12-09T12:13:26.641Z,986.57
2018-12-09T12:14:26.627Z,986.56
2018-12-09T12:15:26.640Z,986.58
2018-12-09T12:16:26.611Z,986.61
2018-12-09T12:17:26.595Z,986.65
2018-12-09T12:18:26.602Z,986.64
2018-12-09T12:19:26.588Z,986.60
2018-12-09T12:20:26.606Z,986.69
2018-12-09T12:21:26.581Z,986.60
2018-12-09T12:22:26.556Z,986.62
2018-12-09T12:23:26.545Z,986.64
2018-12-09T12:24:26.523Z,986.64
2018-12-09T12:25:26.513Z,986.72
2018-12-09T12:26:26.517Z,986.74
2018-12-09T12:27:26.493Z,986.76
2018-12-09T12:28:26.478Z,986.77